Time;durP1;ratioP1;P1;durP2;ratioP2;P2;SDS_P1;SDS_P2;PMS_P1;PMS_P2;Temp;Humidity;BMP_temperature;BMP_pressure;BME280_temperature;BME280_humidity;BME280_pressure;Samples;Min_cycle;Max_cycle;Signal;HPM_P1;HPM_P2
2022/07/02 00:00:07;;;;;;;5.10;2.90;;;18.20;69.90;;;;;;5015589;28;20548;-76
2022/07/02 00:02:43;;;;;;;7.37;2.80;;;18.20;69.90;;;;;;5020844;28;20457;-75
2022/07/02 00:05:14;;;;;;;8.30;2.80;;;18.20;70.00;;;;;;4998723;28;20476;-75
2022/07/02 00:07:42;;;;;;;5.87;2.60;;;18.20;70.00;;;;;;5017663;28;20463;-75
2022/07/02 00:10:11;;;;;;;6.37;3.10;;;18.10;69.90;;;;;;5018486;28;20977;-75
2022/07/02 00:12:41;;;;;;;7.60;2.97;;;18.10;70.10;;;;;;5019679;28;20480;-75
2022/07/02 00:15:10;;;;;;;5.00;2.90;;;18.10;70.20;;;;;;5016066;28;20511;-75
2022/07/02 00:17:39;;;;;;;5.60;2.70;;;18.10;70.30;;;;;;5014237;28;20461;-76
2022/07/02 00:20:08;;;;;;;4.77;2.40;;;18.10;70.40;;;;;;5019815;28;20495;-75
2022/07/02 00:22:37;;;;;;;6.60;2.73;;;18.10;70.40;;;;;;5014987;28;20470;-75
2022/07/02 00:25:05;;;;;;;5.50;2.80;;;18.10;70.40;;;;;;5022293;28;20558;-75
2022/07/02 00:27:34;;;;;;;6.20;2.67;;;18.10;70.50;;;;;;5022577;28;20452;-75
2022/07/02 00:30:05;;;;;;;5.20;2.47;;;18.10;70.50;;;;;;5005020;28;20482;-75
2022/07/02 00:32:35;;;;;;;5.73;3.13;;;18.10;70.50;;;;;;5004424;28;20505;-76
2022/07/02 00:35:06;;;;;;;8.57;3.40;;;18.10;70.50;;;;;;5023086;28;20461;-75
2022/07/02 00:37:35;;;;;;;5.10;2.80;;;18.10;70.60;;;;;;5019901;28;20824;-75
2022/07/02 00:40:03;;;;;;;6.97;2.90;;;18.10;70.60;;;;;;5022542;28;20465;-74
2022/07/02 00:42:32;;;;;;;5.80;2.60;;;18.10;70.60;;;;;;5020427;28;20465;-75
2022/07/02 00:45:01;;;;;;;5.03;2.30;;;18.00;70.70;;;;;;5015962;28;20484;-75
2022/07/02 00:47:31;;;;;;;5.13;2.70;;;18.00;70.70;;;;;;5020594;28;20467;-75
2022/07/02 00:50:02;;;;;;;4.50;2.57;;;18.00;70.70;;;;;;5014804;28;20575;-75
2022/07/02 00:52:30;;;;;;;12.60;3.17;;;18.00;70.80;;;;;;5018344;28;20537;-75
2022/07/02 00:54:58;;;;;;;8.83;3.00;;;18.00;70.80;;;;;;5013230;28;20482;-75
2022/07/02 00:57:26;;;;;;;5.60;3.10;;;18.00;70.80;;;;;;5011734;28;20468;-75
2022/07/02 00:59:54;;;;;;;4.30;2.47;;;18.00;70.80;;;;;;5016261;28;20466;-75
2022/07/02 01:02:23;;;;;;;6.07;2.60;;;18.00;70.80;;;;;;5015668;28;20487;-75
2022/07/02 01:04:54;;;;;;;6.67;2.93;;;18.00;70.80;;;;;;5014797;28;20508;-75
2022/07/02 01:07:23;;;;;;;8.53;2.80;;;17.90;70.80;;;;;;5002374;28;21084;-75
2022/07/02 01:12:41;;;;;;;7.57;3.20;;;17.90;70.80;;;;;;5015019;28;20495;-75
2022/07/02 01:15:10;;;;;;;5.03;3.00;;;17.80;70.80;;;;;;5015229;28;20485;-76
2022/07/02 01:22:22;;;;;;;5.90;2.93;;;17.80;71.00;;;;;;5014877;28;20504;-75
2022/07/02 01:24:52;;;;;;;5.53;2.50;;;17.70;71.00;;;;;;4945041;28;20495;-75
2022/07/02 01:27:21;;;;;;;7.00;3.00;;;17.70;71.00;;;;;;4982091;28;20468;-75
2022/07/02 01:29:49;;;;;;;6.27;2.83;;;17.70;71.10;;;;;;5016912;28;20468;-75
2022/07/02 01:32:19;;;;;;;12.63;2.70;;;17.70;71.10;;;;;;4995062;28;20476;-76
2022/07/02 01:34:50;;;;;;;6.73;2.37;;;17.70;71.00;;;;;;5013128;28;20467;-76
2022/07/02 01:37:19;;;;;;;6.20;2.63;;;17.70;70.90;;;;;;5014437;28;20475;-75
2022/07/02 01:39:49;;;;;;;5.07;3.10;;;17.70;70.90;;;;;;5020275;28;20463;-75
2022/07/02 01:42:17;;;;;;;5.73;2.20;;;17.70;70.80;;;;;;4997082;28;20544;-75
2022/07/02 01:44:47;;;;;;;7.20;2.97;;;17.60;70.80;;;;;;4997277;28;20869;-75
2022/07/02 01:47:15;;;;;;;5.30;2.80;;;17.60;70.90;;;;;;5014207;28;20838;-75
2022/07/02 01:49:43;;;;;;;7.33;2.90;;;17.60;70.90;;;;;;5011477;28;20456;-75
2022/07/02 01:52:13;;;;;;;5.70;2.53;;;17.60;70.90;;;;;;4996382;28;20456;-76
2022/07/02 01:54:42;;;;;;;6.17;2.63;;;17.50;70.90;;;;;;5013766;28;20476;-75
2022/07/02 01:57:13;;;;;;;4.80;2.40;;;17.50;70.90;;;;;;5016827;28;20452;-76
2022/07/02 01:59:41;;;;;;;5.77;2.80;;;17.50;70.90;;;;;;5014448;28;20471;-75
2022/07/02 02:02:09;;;;;;;8.23;2.90;;;17.50;70.90;;;;;;5011612;28;20487;-75
2022/07/02 02:04:37;;;;;;;5.83;2.83;;;17.50;70.80;;;;;;5006967;28;20456;-75
2022/07/02 02:07:06;;;;;;;7.83;2.57;;;17.40;70.90;;;;;;5013364;28;20490;-75
2022/07/02 02:09:34;;;;;;;4.80;2.40;;;17.40;70.90;;;;;;5015324;28;20463;-75
2022/07/02 02:12:03;;;;;;;5.27;2.23;;;17.40;70.90;;;;;;5000250;28;20453;-75
2022/07/02 02:14:32;;;;;;;5.60;2.87;;;17.40;70.80;;;;;;5017657;28;20495;-76
2022/07/02 02:17:00;;;;;;;6.87;2.67;;;17.30;70.90;;;;;;5000603;28;20472;-75
2022/07/02 02:19:28;;;;;;;11.77;3.60;;;17.30;70.80;;;;;;5013155;28;20526;-76
2022/07/02 02:21:56;;;;;;;5.90;2.63;;;17.30;70.80;;;;;;5019004;28;20471;-75
2022/07/02 02:24:24;;;;;;;7.73;2.93;;;17.30;70.80;;;;;;4998363;28;20471;-75
2022/07/02 02:26:52;;;;;;;5.83;2.40;;;17.20;70.80;;;;;;5000531;28;20486;-75
2022/07/02 02:29:21;;;;;;;7.30;2.60;;;17.20;70.70;;;;;;5018240;28;20451;-75
2022/07/02 02:31:51;;;;;;;6.40;2.77;;;17.10;70.70;;;;;;5019188;28;20488;-75
2022/07/02 02:34:19;;;;;;;12.33;3.70;;;17.10;70.70;;;;;;5007618;28;20487;-77
2022/07/02 02:36:47;;;;;;;13.30;3.10;;;17.10;70.70;;;;;;5019916;28;20492;-76
2022/07/02 02:39:15;;;;;;;6.80;2.80;;;17.10;70.80;;;;;;4999743;28;21074;-76
2022/07/02 02:41:43;;;;;;;8.83;3.30;;;17.10;70.80;;;;;;5021447;28;20462;-76
2022/07/02 02:44:11;;;;;;;8.50;3.27;;;17.00;70.90;;;;;;5017677;28;20458;-76
2022/07/02 02:46:39;;;;;;;11.50;3.43;;;17.00;70.90;;;;;;5000109;28;20494;-76
2022/07/02 02:49:08;;;;;;;11.23;2.40;;;17.00;70.90;;;;;;5021404;28;20461;-76
2022/07/02 02:51:36;;;;;;;14.10;3.40;;;17.00;70.90;;;;;;5021959;28;22370;-76
2022/07/02 02:54:04;;;;;;;13.47;3.37;;;17.00;70.80;;;;;;5020661;28;20480;-76
2022/07/02 02:56:32;;;;;;;18.23;3.50;;;16.90;70.60;;;;;;5016544;28;20485;-76
2022/07/02 02:59:00;;;;;;;14.30;3.67;;;16.90;70.60;;;;;;5014886;28;20468;-76
2022/07/02 03:01:28;;;;;;;20.00;3.60;;;16.80;70.70;;;;;;5017235;28;20491;-76
2022/07/02 03:03:58;;;;;;;6.20;3.33;;;16.80;70.70;;;;;;4996864;28;20508;-76
2022/07/02 03:06:28;;;;;;;5.43;2.90;;;16.70;70.80;;;;;;5018572;28;20483;-76
2022/07/02 03:08:56;;;;;;;5.77;2.80;;;16.70;70.90;;;;;;5002417;28;21205;-75
2022/07/02 03:11:23;;;;;;;12.50;3.03;;;16.70;71.00;;;;;;4997822;28;20456;-75
2022/07/02 03:13:51;;;;;;;6.30;2.60;;;16.60;71.00;;;;;;5012948;28;20484;-75
2022/07/02 03:16:19;;;;;;;9.00;3.03;;;16.60;71.00;;;;;;5012772;28;20479;-75
2022/07/02 03:18:47;;;;;;;6.47;2.90;;;16.60;71.00;;;;;;5017016;28;20547;-75
2022/07/02 03:21:15;;;;;;;7.80;2.87;;;16.60;71.10;;;;;;5018224;28;20460;-75
2022/07/02 03:23:45;;;;;;;8.17;3.30;;;16.60;71.10;;;;;;5012967;28;20471;-75
2022/07/02 03:26:13;;;;;;;6.67;2.70;;;16.50;71.10;;;;;;5013691;28;20496;-75
2022/07/02 03:28:41;;;;;;;16.37;3.27;;;16.50;71.00;;;;;;5013483;28;20464;-75
2022/07/02 03:31:09;;;;;;;6.40;2.70;;;16.40;71.20;;;;;;5016341;28;21035;-75
2022/07/02 03:33:38;;;;;;;12.03;3.47;;;16.50;71.30;;;;;;5017249;28;20498;-75
2022/07/02 03:36:06;;;;;;;12.30;3.17;;;16.50;71.40;;;;;;5015717;28;21395;-75
2022/07/02 03:38:34;;;;;;;16.47;3.23;;;16.50;71.30;;;;;;4996944;28;20452;-77
2022/07/02 03:41:06;;;;;;;16.30;3.00;;;16.50;71.20;;;;;;5018119;28;20463;-77
2022/07/02 03:43:34;;;;;;;13.10;3.20;;;16.50;71.40;;;;;;5015124;28;21095;-76
2022/07/02 03:46:03;;;;;;;8.10;2.80;;;16.50;71.40;;;;;;4996843;28;21027;-76
2022/07/02 03:48:31;;;;;;;16.13;3.40;;;16.50;71.40;;;;;;5017880;28;20491;-76
2022/07/02 03:50:59;;;;;;;11.23;3.20;;;16.50;71.30;;;;;;5001112;28;20476;-77
2022/07/02 03:53:27;;;;;;;13.97;3.57;;;16.50;71.30;;;;;;5017272;28;20452;-76
2022/07/02 03:55:55;;;;;;;7.57;2.90;;;16.50;71.30;;;;;;5010349;28;20855;-76
2022/07/02 03:58:24;;;;;;;16.90;3.77;;;16.50;71.30;;;;;;5003919;28;20811;-76
2022/07/02 04:00:52;;;;;;;11.40;3.13;;;16.50;71.20;;;;;;4999890;28;20472;-76
2022/07/02 04:03:20;;;;;;;11.40;3.30;;;16.50;71.10;;;;;;5015007;28;20465;-76
2022/07/02 04:05:48;;;;;;;20.57;3.03;;;16.50;71.20;;;;;;5015478;28;20491;-76
2022/07/02 04:08:17;;;;;;;14.43;3.40;;;16.50;71.10;;;;;;5014729;28;20479;-76
2022/07/02 04:10:45;;;;;;;11.70;3.43;;;16.50;71.10;;;;;;5015973;28;20472;-76
2022/07/02 04:13:13;;;;;;;15.40;3.27;;;16.50;71.20;;;;;;5019298;28;20461;-76
2022/07/02 04:15:43;;;;;;;9.50;3.20;;;16.50;71.30;;;;;;5020428;28;21031;-77
2022/07/02 04:18:11;;;;;;;6.90;2.63;;;16.50;71.40;;;;;;5023913;28;21278;-77
2022/07/02 04:20:39;;;;;;;16.37;3.10;;;16.60;71.50;;;;;;5020277;28;20470;-76
2022/07/02 04:23:07;;;;;;;13.43;4.37;;;16.70;71.50;;;;;;4997040;28;20460;-76
2022/07/02 04:25:35;;;;;;;8.30;3.60;;;16.80;71.60;;;;;;5014208;28;20475;-76
2022/07/02 04:28:03;;;;;;;17.73;3.50;;;16.90;71.60;;;;;;5017076;28;20451;-76
2022/07/02 04:30:31;;;;;;;10.63;3.03;;;17.00;71.40;;;;;;5017768;28;20476;-76
2022/07/02 04:33:01;;;;;;;11.87;3.63;;;17.10;71.30;;;;;;4996804;28;20953;-77
2022/07/02 04:35:30;;;;;;;8.60;3.40;;;17.20;71.30;;;;;;5001344;28;20575;-76
2022/07/02 04:37:58;;;;;;;11.70;3.33;;;17.20;71.40;;;;;;5012527;28;20464;-76
2022/07/02 04:40:26;;;;;;;15.17;3.70;;;17.40;71.50;;;;;;5011281;28;20463;-76
2022/07/02 04:42:54;;;;;;;14.83;3.47;;;17.50;71.70;;;;;;5016492;28;20456;-76
2022/07/02 04:45:22;;;;;;;11.67;3.77;;;17.70;71.60;;;;;;5020968;28;20839;-76
2022/07/02 04:47:50;;;;;;;13.00;3.90;;;17.90;71.50;;;;;;5017613;28;20455;-76
2022/07/02 04:50:19;;;;;;;11.37;3.27;;;18.00;71.50;;;;;;5015963;28;20495;-76
2022/07/02 04:52:48;;;;;;;8.30;3.10;;;18.20;71.50;;;;;;5015628;28;20960;-76
2022/07/02 04:55:16;;;;;;;12.73;3.00;;;18.40;71.40;;;;;;5006099;28;20496;-76
2022/07/02 04:57:44;;;;;;;6.00;3.30;;;18.60;71.30;;;;;;5013140;28;21126;-76
2022/07/02 05:00:14;;;;;;;6.87;3.50;;;18.80;71.30;;;;;;5016741;28;21057;-76
2022/07/02 05:02:42;;;;;;;12.87;4.00;;;18.90;71.20;;;;;;5018176;28;20446;-76
2022/07/02 05:05:10;;;;;;;11.47;3.87;;;19.10;71.00;;;;;;5014221;28;21331;-76
2022/07/02 05:07:39;;;;;;;15.23;3.90;;;19.20;70.90;;;;;;5013486;28;20472;-77
2022/07/02 05:10:08;;;;;;;9.87;3.70;;;19.40;70.80;;;;;;5014884;28;20537;-77
2022/07/02 05:12:36;;;;;;;12.43;3.70;;;19.50;70.70;;;;;;5016342;28;20463;-77
2022/07/02 05:15:05;;;;;;;8.63;3.53;;;19.70;70.70;;;;;;4997136;28;20496;-76
2022/07/02 05:17:33;;;;;;;6.90;3.47;;;19.80;70.60;;;;;;5014369;28;20509;-77
2022/07/02 05:20:00;;;;;;;7.30;4.00;;;19.90;70.40;;;;;;5016656;28;20454;-77
2022/07/02 05:22:28;;;;;;;8.77;3.50;;;20.00;70.50;;;;;;5013547;28;20525;-77
2022/07/02 05:24:58;;;;;;;16.73;3.90;;;20.10;70.50;;;;;;5015483;28;20844;-77
2022/07/02 05:27:26;;;;;;;15.10;4.70;;;20.30;70.40;;;;;;5016930;28;20572;-77
2022/07/02 05:29:54;;;;;;;17.67;4.33;;;20.40;70.30;;;;;;5019586;28;20457;-77
2022/07/02 05:32:21;;;;;;;8.80;4.23;;;20.50;70.30;;;;;;5017731;28;20494;-77
2022/07/02 05:34:49;;;;;;;18.33;3.87;;;20.70;70.30;;;;;;5000644;28;20486;-78
2022/07/02 05:37:24;;;;;;;8.07;3.40;;;20.80;70.60;;;;;;5021646;28;20553;-77
2022/07/02 05:39:53;;;;;;;5.30;2.57;;;21.10;71.00;;;;;;5022251;28;20469;-78
2022/07/02 05:42:22;;;;;;;8.13;3.43;;;21.40;71.60;;;;;;5020921;28;20460;-76
2022/07/02 05:44:50;;;;;;;6.13;2.70;;;22.10;71.10;;;;;;5022476;28;20464;-76
2022/07/02 05:47:19;;;;;;;7.30;3.27;;;23.20;68.90;;;;;;5002221;28;20591;-76
2022/07/02 05:49:46;;;;;;;7.90;3.03;;;24.40;66.40;;;;;;5003236;28;20459;-76
2022/07/02 05:52:17;;;;;;;5.87;2.43;;;25.60;64.10;;;;;;5020753;28;20574;-76
2022/07/02 05:54:45;;;;;;;6.70;2.57;;;26.60;62.40;;;;;;5017381;28;20453;-77
2022/07/02 05:57:13;;;;;;;7.87;2.60;;;27.60;60.90;;;;;;5022141;28;20472;-78
2022/07/02 05:59:43;;;;;;;9.80;2.87;;;28.40;59.70;;;;;;5003451;28;20479;-78
2022/07/02 06:02:11;;;;;;;10.27;2.60;;;29.10;58.70;;;;;;5017593;28;20487;-76
2022/07/02 06:04:39;;;;;;;6.20;2.73;;;29.80;57.80;;;;;;5022873;28;20994;-77
2022/07/02 06:09:53;;;;;;;8.60;2.87;;;30.60;55.70;;;;;;5020657;28;20478;-77
2022/07/02 06:12:22;;;;;;;7.03;2.80;;;30.80;54.90;;;;;;5019503;28;20463;-78
2022/07/02 06:14:51;;;;;;;4.53;2.30;;;30.60;54.70;;;;;;5025139;28;20897;-78
2022/07/02 06:17:19;;;;;;;7.63;2.63;;;30.20;55.10;;;;;;5026260;28;20469;-78
2022/07/02 06:19:48;;;;;;;5.00;2.90;;;29.60;55.40;;;;;;5023157;28;20642;-79
2022/07/02 06:22:16;;;;;;;7.00;2.70;;;29.00;56.00;;;;;;5023159;28;20454;-78
2022/07/02 06:24:45;;;;;;;6.27;2.40;;;28.50;56.50;;;;;;5026251;28;20529;-78
2022/07/02 06:27:14;;;;;;;5.80;2.20;;;28.00;56.90;;;;;;5027673;28;20449;-78
2022/07/02 06:29:43;;;;;;;7.50;2.43;;;27.40;57.20;;;;;;5027079;28;20557;-77
2022/07/02 06:32:12;;;;;;;4.97;2.03;;;26.80;58.00;;;;;;5026172;28;20473;-76
2022/07/02 06:34:41;;;;;;;4.53;2.03;;;26.30;58.50;;;;;;5024428;28;20859;-76
2022/07/02 06:37:10;;;;;;;8.87;2.60;;;25.70;58.80;;;;;;5009404;28;20479;-76
2022/07/02 06:39:38;;;;;;;6.63;2.10;;;25.10;59.20;;;;;;5020596;28;20450;-76
2022/07/02 06:42:22;;;;;;;5.50;1.50;;;24.50;59.90;;;;;;5023025;28;20467;-77
2022/07/02 06:44:55;;;;;;;4.40;1.70;;;24.00;60.50;;;;;;5002035;28;20486;-77
2022/07/02 06:47:28;;;;;;;5.90;2.00;;;23.50;61.30;;;;;;5017723;28;20877;-77
2022/07/02 06:49:57;;;;;;;4.23;1.87;;;23.10;62.10;;;;;;5020853;28;20472;-77
2022/07/02 06:52:26;;;;;;;6.77;2.67;;;22.80;62.60;;;;;;5016069;28;20470;-76
2022/07/02 06:54:54;;;;;;;7.37;2.23;;;22.50;63.40;;;;;;5016865;28;20864;-76
2022/07/02 06:57:22;;;;;;;4.97;2.63;;;22.30;63.70;;;;;;5018403;28;20936;-77
2022/07/02 06:59:53;;;;;;;6.20;2.37;;;22.20;64.20;;;;;;5021849;28;20457;-76
2022/07/02 07:02:22;;;;;;;4.47;2.17;;;22.00;64.70;;;;;;5016875;28;20491;-76
2022/07/02 07:04:52;;;;;;;4.50;1.80;;;21.90;65.00;;;;;;5002110;28;20466;-76
2022/07/02 07:07:26;;;;;;;5.30;2.00;;;21.80;65.50;;;;;;5013495;28;21404;-77
2022/07/02 07:09:55;;;;;;;21.40;2.80;;;21.70;65.80;;;;;;5019313;28;20468;-76
2022/07/02 07:12:23;;;;;;;4.97;2.10;;;21.70;66.20;;;;;;5017811;28;20449;-76
2022/07/02 07:14:51;;;;;;;5.00;1.60;;;21.70;66.50;;;;;;5018824;28;20473;-76
2022/07/02 07:17:19;;;;;;;5.33;2.43;;;21.70;66.70;;;;;;5018885;28;20483;-76
2022/07/02 07:19:47;;;;;;;4.30;1.73;;;21.70;66.90;;;;;;5016804;28;20458;-76
2022/07/02 07:22:16;;;;;;;4.97;2.30;;;21.70;67.00;;;;;;5019251;28;21260;-78
2022/07/02 07:24:44;;;;;;;8.20;2.80;;;21.70;67.10;;;;;;5014982;28;20465;-77
2022/07/02 07:27:12;;;;;;;5.77;2.87;;;21.80;67.40;;;;;;5018244;28;20968;-79
2022/07/02 07:29:40;;;;;;;4.90;2.70;;;21.80;67.60;;;;;;5017103;28;20466;-78
2022/07/02 07:32:09;;;;;;;8.83;2.40;;;21.80;67.80;;;;;;5016613;28;20483;-78
2022/07/02 07:34:41;;;;;;;4.27;2.13;;;21.80;68.00;;;;;;5002159;28;20462;-78
2022/07/02 07:37:11;;;;;;;4.50;1.80;;;21.80;68.10;;;;;;5017478;28;20524;-78
2022/07/02 07:39:40;;;;;;;5.50;2.17;;;21.80;68.40;;;;;;4998056;28;20459;-78
2022/07/02 07:42:08;;;;;;;4.97;2.10;;;21.80;68.40;;;;;;5015738;28;20456;-78
2022/07/02 07:44:36;;;;;;;4.13;1.80;;;21.90;68.50;;;;;;5021696;28;20461;-78
2022/07/02 07:47:05;;;;;;;4.93;1.60;;;21.90;68.60;;;;;;5004221;28;20848;-78
2022/07/02 07:49:33;;;;;;;5.67;1.77;;;21.90;68.60;;;;;;5022334;28;20788;-77
2022/07/02 07:52:01;;;;;;;5.30;1.77;;;22.00;68.50;;;;;;5000411;28;20464;-77
2022/07/02 07:54:29;;;;;;;5.47;2.07;;;22.10;68.50;;;;;;5020404;28;20471;-77
2022/07/02 07:56:58;;;;;;;4.23;1.40;;;22.10;68.50;;;;;;5004192;28;20545;-76
2022/07/02 07:59:26;;;;;;;4.50;1.37;;;22.20;68.00;;;;;;5001236;28;21008;-77
2022/07/02 08:01:54;;;;;;;8.37;1.23;;;22.30;67.60;;;;;;5015930;28;20473;-77
2022/07/02 08:04:24;;;;;;;4.70;1.30;;;22.30;67.00;;;;;;5020345;28;20484;-77
2022/07/02 08:06:52;;;;;;;3.43;1.20;;;22.30;66.50;;;;;;5022893;28;20713;-76
2022/07/02 08:09:20;;;;;;;4.70;1.10;;;22.30;65.90;;;;;;5022026;28;20965;-79
2022/07/02 08:11:47;;;;;;;3.70;1.30;;;22.40;65.50;;;;;;5020528;28;20477;-79
2022/07/02 08:14:17;;;;;;;3.77;1.30;;;22.40;64.90;;;;;;5001072;28;20817;-78
2022/07/02 08:16:45;;;;;;;3.80;1.20;;;22.40;64.70;;;;;;5014055;28;21035;-78
2022/07/02 08:19:13;;;;;;;4.97;1.00;;;22.40;64.20;;;;;;5015257;28;20568;-77
2022/07/02 08:21:40;;;;;;;3.40;1.10;;;22.40;63.30;;;;;;5017425;28;20836;-77
2022/07/02 08:24:09;;;;;;;4.33;1.17;;;22.50;63.40;;;;;;5014161;28;20460;-78
2022/07/02 08:26:37;;;;;;;6.27;1.70;;;22.50;63.10;;;;;;5017113;28;20479;-77
2022/07/02 08:29:05;;;;;;;4.13;1.13;;;22.50;62.20;;;;;;5021129;28;20451;-77
2022/07/02 08:31:34;;;;;;;3.30;0.90;;;22.60;62.60;;;;;;5021694;28;20505;-77
2022/07/02 08:34:02;;;;;;;3.60;1.10;;;22.60;62.30;;;;;;5014844;28;20472;-79
2022/07/02 08:36:30;;;;;;;3.47;1.00;;;22.60;62.00;;;;;;5014024;28;21232;-78
2022/07/02 08:38:58;;;;;;;4.33;1.00;;;22.70;62.10;;;;;;5023480;28;20463;-78
2022/07/02 08:41:26;;;;;;;4.00;1.90;;;22.70;61.90;;;;;;4995999;28;20971;-78
2022/07/02 08:43:55;;;;;;;3.80;1.13;;;22.70;61.70;;;;;;5018967;28;20468;-78
2022/07/02 08:46:25;;;;;;;5.30;1.73;;;22.70;61.60;;;;;;5023626;28;20984;-78
2022/07/02 08:48:54;;;;;;;3.10;0.90;;;22.80;61.40;;;;;;5020541;28;20566;-78
2022/07/02 08:51:23;;;;;;;8.27;3.33;;;22.80;61.30;;;;;;5016120;28;21215;-78
2022/07/02 08:53:51;;;;;;;7.37;3.10;;;22.90;60.90;;;;;;5015352;28;20474;-77
2022/07/02 08:56:21;;;;;;;4.87;1.43;;;22.90;60.50;;;;;;5013798;28;20483;-77
2022/07/02 08:58:53;;;;;;;4.33;1.30;;;22.90;60.60;;;;;;5019130;28;20473;-76
2022/07/02 09:01:23;;;;;;;4.40;0.97;;;22.90;60.60;;;;;;5023698;28;20497;-77
2022/07/02 09:03:54;;;;;;;5.73;1.10;;;22.90;60.20;;;;;;5019688;28;20884;-78
2022/07/02 09:06:25;;;;;;;3.67;1.13;;;22.90;60.00;;;;;;5012700;28;20485;-78
2022/07/02 09:08:53;;;;;;;4.80;1.47;;;23.00;59.90;;;;;;5023870;28;20459;-78
2022/07/02 09:11:22;;;;;;;5.77;1.53;;;23.00;59.80;;;;;;5006245;28;20466;-78
2022/07/02 09:13:50;;;;;;;5.80;1.30;;;23.10;59.50;;;;;;5006224;28;20854;-77
2022/07/02 09:16:19;;;;;;;4.80;1.43;;;23.10;59.30;;;;;;5018918;28;20488;-78
2022/07/02 09:18:47;;;;;;;4.60;0.80;;;23.20;59.30;;;;;;5014265;28;20477;-78
2022/07/02 09:21:17;;;;;;;4.37;0.87;;;23.20;58.90;;;;;;5003439;28;20840;-79
2022/07/02 09:23:48;;;;;;;3.93;1.00;;;23.20;58.80;;;;;;5018049;28;20532;-79
2022/07/02 09:26:20;;;;;;;5.90;1.10;;;23.30;58.50;;;;;;5021594;28;20486;-78
2022/07/02 09:28:59;;;;;;;5.20;1.10;;;23.30;58.50;;;;;;5019652;28;20460;-76
2022/07/02 09:31:27;;;;;;;3.60;1.03;;;23.30;58.60;;;;;;5016909;28;20477;-77
2022/07/02 09:33:56;;;;;;;3.40;1.10;;;23.40;58.40;;;;;;5018837;28;20504;-77
2022/07/02 09:36:26;;;;;;;3.07;0.80;;;23.40;58.40;;;;;;5018669;28;20497;-77
2022/07/02 09:38:55;;;;;;;3.87;1.20;;;23.40;58.60;;;;;;5018349;28;21018;-77
2022/07/02 09:41:24;;;;;;;3.60;0.80;;;23.50;58.30;;;;;;4999643;28;20466;-78
2022/07/02 09:43:54;;;;;;;7.03;2.17;;;23.50;58.10;;;;;;5011509;28;20544;-77
2022/07/02 09:46:22;;;;;;;3.80;1.30;;;23.60;58.20;;;;;;5015257;28;20993;-77
2022/07/02 09:48:50;;;;;;;3.67;1.30;;;23.60;58.30;;;;;;5014525;28;20903;-77
2022/07/02 09:51:19;;;;;;;3.83;1.20;;;23.70;58.40;;;;;;5013822;28;20456;-77
2022/07/02 09:53:50;;;;;;;4.37;1.13;;;23.80;58.40;;;;;;5014450;28;20463;-77
2022/07/02 09:56:18;;;;;;;3.50;1.10;;;23.80;58.20;;;;;;5013779;28;20496;-77
2022/07/02 09:58:46;;;;;;;5.07;1.20;;;23.80;57.80;;;;;;5000663;28;20495;-77
2022/07/02 10:01:19;;;;;;;3.80;0.93;;;23.80;57.60;;;;;;5014166;28;20477;-77
2022/07/02 10:03:48;;;;;;;3.53;0.77;;;23.70;57.40;;;;;;5016279;28;20456;-78
2022/07/02 10:06:17;;;;;;;3.83;1.00;;;23.70;57.20;;;;;;5013849;28;20477;-78
2022/07/02 10:08:55;;;;;;;4.47;0.97;;;23.70;57.40;;;;;;5013885;28;20457;-77
2022/07/02 10:11:24;;;;;;;3.97;1.20;;;23.80;56.90;;;;;;4996287;28;20516;-77
2022/07/02 10:13:56;;;;;;;5.60;1.20;;;23.80;56.90;;;;;;5017204;28;20462;-77
2022/07/02 10:16:25;;;;;;;4.17;1.00;;;23.80;56.70;;;;;;5016164;28;20570;-77
2022/07/02 10:18:54;;;;;;;3.40;1.00;;;23.70;56.60;;;;;;5010416;28;21211;-77
2022/07/02 10:21:23;;;;;;;4.70;1.00;;;23.70;56.10;;;;;;5015161;28;20469;-77
2022/07/02 10:23:53;;;;;;;4.80;0.77;;;23.70;55.70;;;;;;5011409;28;20469;-77
2022/07/02 10:26:23;;;;;;;3.53;0.83;;;23.80;56.00;;;;;;4999714;28;20483;-77
2022/07/02 10:28:51;;;;;;;4.30;1.17;;;23.80;55.50;;;;;;5013901;28;20447;-77
2022/07/02 10:31:20;;;;;;;3.47;0.80;;;23.90;55.20;;;;;;4960574;28;1072904;-77
2022/07/02 10:33:55;;;;;;;3.60;0.70;;;24.00;54.80;;;;;;5017750;28;20210;-77
2022/07/02 10:36:24;;;;;;;4.13;1.20;;;24.00;54.50;;;;;;5017370;28;20491;-77
2022/07/02 10:39:01;;;;;;;3.30;0.80;;;24.00;54.40;;;;;;5021126;28;20482;-77
2022/07/02 10:41:30;;;;;;;4.20;1.10;;;24.00;54.20;;;;;;5018279;28;20461;-77
2022/07/02 10:44:00;;;;;;;4.40;1.10;;;24.00;54.40;;;;;;5019865;28;20990;-77
2022/07/02 10:46:34;;;;;;;3.80;1.00;;;24.10;54.20;;;;;;5015247;28;20503;-77
2022/07/02 10:49:05;;;;;;;3.87;0.90;;;24.10;54.20;;;;;;5001285;28;20511;-77
2022/07/02 10:51:35;;;;;;;4.13;1.00;;;24.20;54.40;;;;;;5021782;28;20473;-77
2022/07/02 10:54:07;;;;;;;3.90;1.13;;;24.20;54.30;;;;;;5017178;28;20963;-77
2022/07/02 10:56:45;;;;;;;5.50;0.90;;;24.30;54.40;;;;;;5019888;28;20478;-77
2022/07/02 10:59:21;;;;;;;3.60;1.10;;;24.40;54.30;;;;;;5018164;28;20493;-77
2022/07/02 11:01:59;;;;;;;4.30;1.13;;;24.40;54.10;;;;;;5017421;28;20572;-77
2022/07/02 11:04:27;;;;;;;4.43;0.80;;;24.40;54.10;;;;;;5001034;28;20491;-77
2022/07/02 11:07:05;;;;;;;3.70;0.80;;;24.50;53.70;;;;;;5020563;28;20487;-77
2022/07/02 11:09:46;;;;;;;4.10;1.60;;;24.50;53.70;;;;;;5017902;28;20451;-77
2022/07/02 11:12:18;;;;;;;3.50;1.00;;;24.50;53.70;;;;;;5018059;28;20471;-77
2022/07/02 11:14:55;;;;;;;3.73;0.87;;;24.60;53.80;;;;;;5017059;28;20465;-77
2022/07/02 11:17:47;;;;;;;3.77;1.00;;;24.60;53.80;;;;;;5022164;28;20482;-77
2022/07/02 11:20:22;;;;;;;4.23;1.00;;;24.60;53.80;;;;;;5002863;28;20462;-77
2022/07/02 11:22:50;;;;;;;3.73;1.00;;;24.70;53.90;;;;;;5014607;28;20455;-77
2022/07/02 11:25:20;;;;;;;3.53;0.90;;;24.70;53.80;;;;;;5012987;28;20525;-77
2022/07/02 11:27:56;;;;;;;4.90;1.10;;;24.80;54.00;;;;;;5019272;28;20459;-77
2022/07/02 11:30:26;;;;;;;3.77;1.00;;;24.80;53.70;;;;;;5014564;28;20981;-77
2022/07/02 11:32:54;;;;;;;6.93;0.90;;;24.80;53.80;;;;;;5015681;28;20474;-77
2022/07/02 11:35:23;;;;;;;4.90;1.03;;;24.80;53.60;;;;;;5018932;28;20485;-77
2022/07/02 11:37:56;;;;;;;3.87;1.10;;;24.90;53.60;;;;;;5017338;28;20455;-77
2022/07/02 11:40:26;;;;;;;3.70;0.93;;;24.90;53.80;;;;;;5015221;28;20470;-77
2022/07/02 11:42:54;;;;;;;3.70;0.83;;;25.00;53.30;;;;;;5018359;28;20465;-77
2022/07/02 11:45:22;;;;;;;3.50;1.00;;;25.00;53.50;;;;;;5018463;28;20491;-77
2022/07/02 11:47:51;;;;;;;3.20;0.80;;;25.00;53.40;;;;;;5017736;28;20444;-77
2022/07/02 11:50:31;;;;;;;3.30;0.70;;;25.10;53.30;;;;;;5000573;28;20465;-77
2022/07/02 11:52:59;;;;;;;3.63;1.00;;;25.10;53.00;;;;;;5014750;28;20484;-77
2022/07/02 11:55:28;;;;;;;3.20;0.80;;;25.10;52.90;;;;;;5000593;28;20479;-77
2022/07/02 11:57:56;;;;;;;4.33;1.17;;;25.10;52.90;;;;;;5019216;28;20451;-77
2022/07/02 12:00:30;;;;;;;4.03;1.13;;;25.10;53.00;;;;;;5015038;28;20478;-77
2022/07/02 12:03:07;;;;;;;6.13;1.00;;;25.20;52.80;;;;;;5017681;28;20469;-77
2022/07/02 12:05:35;;;;;;;4.73;1.00;;;25.20;52.80;;;;;;4999914;28;20721;-77
2022/07/02 12:08:04;;;;;;;3.50;1.00;;;25.20;52.90;;;;;;4999650;28;20464;-77
2022/07/02 12:10:40;;;;;;;4.63;0.93;;;25.30;52.70;;;;;;5014833;28;20548;-77
2022/07/02 12:13:09;;;;;;;3.60;1.10;;;25.30;52.50;;;;;;5020382;28;20472;-78
2022/07/02 12:15:42;;;;;;;3.73;1.10;;;25.30;52.40;;;;;;5011155;28;20480;-77
2022/07/02 12:18:17;;;;;;;4.47;1.03;;;25.20;52.40;;;;;;5018952;28;20550;-77
2022/07/02 12:20:45;;;;;;;4.87;0.83;;;25.20;52.40;;;;;;5014750;28;20468;-77
2022/07/02 12:23:17;;;;;;;3.87;1.00;;;25.30;52.30;;;;;;5016561;28;20464;-77
2022/07/02 12:25:47;;;;;;;3.87;1.00;;;25.30;52.10;;;;;;5017592;28;20502;-77
2022/07/02 12:31:02;;;;;;;3.40;0.90;;;25.30;52.30;;;;;;4993703;28;20502;-77
2022/07/02 12:33:31;;;;;;;4.10;1.00;;;25.40;51.90;;;;;;5021748;28;20472;-77
2022/07/02 12:36:00;;;;;;;6.80;1.20;;;25.40;51.80;;;;;;5018203;28;20539;-77
2022/07/02 12:38:28;;;;;;;7.70;0.97;;;25.50;51.90;;;;;;5005966;28;20471;-77
2022/07/02 12:41:01;;;;;;;4.07;1.40;;;25.50;51.60;;;;;;5018157;28;20984;-77
2022/07/02 12:43:29;;;;;;;5.00;1.00;;;25.60;51.30;;;;;;5023695;28;20582;-77
2022/07/02 12:46:05;;;;;;;3.57;0.90;;;25.60;51.30;;;;;;5008007;28;21004;-76
2022/07/02 12:48:43;;;;;;;3.27;0.80;;;25.60;51.30;;;;;;5023474;28;20499;-76
2022/07/02 12:51:12;;;;;;;3.30;1.00;;;25.70;51.20;;;;;;5023078;28;20470;-76
2022/07/02 12:53:41;;;;;;;4.33;1.27;;;25.70;51.00;;;;;;5016304;28;20478;-77
2022/07/02 12:56:11;;;;;;;5.40;0.90;;;25.70;51.10;;;;;;5018963;28;20486;-77
2022/07/02 12:58:39;;;;;;;3.20;0.80;;;25.70;51.40;;;;;;5016768;28;21050;-77
2022/07/02 13:01:07;;;;;;;4.33;1.00;;;25.80;51.50;;;;;;5020552;28;21000;-76
2022/07/02 13:03:36;;;;;;;4.33;1.20;;;25.80;51.40;;;;;;5001382;28;20972;-77
2022/07/02 13:06:05;;;;;;;3.67;1.13;;;25.90;51.40;;;;;;5017277;28;20483;-77
2022/07/02 13:08:33;;;;;;;4.47;1.00;;;25.90;51.20;;;;;;4996324;28;20456;-78